sensor_id;sensor_type;location;lat;lon;timestamp;temperature;humidity
34574;DHT22;20809;49.594;8.734;2023-05-18T00:00:59;8.70;99.90
34574;DHT22;20809;49.594;8.734;2023-05-18T00:03:59;8.60;99.90
34574;DHT22;20809;49.594;8.734;2023-05-18T00:07:02;8.50;99.90
34574;DHT22;20809;49.594;8.734;2023-05-18T00:10:04;8.40;99.90
34574;DHT22;20809;49.594;8.734;2023-05-18T00:13:05;8.40;99.90
34574;DHT22;20809;49.594;8.734;2023-05-18T00:16:08;8.30;99.90
34574;DHT22;20809;49.594;8.734;2023-05-18T00:19:08;8.20;99.90
34574;DHT22;20809;49.594;8.734;2023-05-18T00:22:09;8.10;99.90
34574;DHT22;20809;49.594;8.734;2023-05-18T00:25:10;8.10;99.90
34574;DHT22;20809;49.594;8.734;2023-05-18T00:28:11;8.00;99.90
34574;DHT22;20809;49.594;8.734;2023-05-18T00:31:12;7.80;99.90
34574;DHT22;20809;49.594;8.734;2023-05-18T00:34:14;7.70;99.90
34574;DHT22;20809;49.594;8.734;2023-05-18T00:37:17;7.70;99.90
34574;DHT22;20809;49.594;8.734;2023-05-18T00:40:20;7.70;99.90
34574;DHT22;20809;49.594;8.734;2023-05-18T00:43:23;7.70;99.90
34574;DHT22;20809;49.594;8.734;2023-05-18T00:46:26;7.70;99.90
34574;DHT22;20809;49.594;8.734;2023-05-18T00:49:27;7.60;99.90
34574;DHT22;20809;49.594;8.734;2023-05-18T00:52:29;7.60;99.90
34574;DHT22;20809;49.594;8.734;2023-05-18T00:59:13;7.70;99.90
34574;DHT22;20809;49.594;8.734;2023-05-18T01:02:44;7.70;99.90
34574;DHT22;20809;49.594;8.734;2023-05-18T01:05:52;7.60;99.90
34574;DHT22;20809;49.594;8.734;2023-05-18T01:09:02;7.60;99.90
34574;DHT22;20809;49.594;8.734;2023-05-18T01:12:24;7.70;99.90
34574;DHT22;20809;49.594;8.734;2023-05-18T01:15:39;7.60;99.90
34574;DHT22;20809;49.594;8.734;2023-05-18T01:18:53;7.60;99.90
34574;DHT22;20809;49.594;8.734;2023-05-18T01:25:49;7.70;99.90
34574;DHT22;20809;49.594;8.734;2023-05-18T01:28:55;7.60;99.90
34574;DHT22;20809;49.594;8.734;2023-05-18T01:32:07;7.60;99.90
34574;DHT22;20809;49.594;8.734;2023-05-18T01:35:13;7.60;99.90
34574;DHT22;20809;49.594;8.734;2023-05-18T01:38:24;7.60;99.90
34574;DHT22;20809;49.594;8.734;2023-05-18T01:41:30;7.60;99.90
34574;DHT22;20809;49.594;8.734;2023-05-18T01:44:59;7.50;99.90
34574;DHT22;20809;49.594;8.734;2023-05-18T01:48:23;7.40;99.90
34574;DHT22;20809;49.594;8.734;2023-05-18T01:51:32;7.30;99.90
34574;DHT22;20809;49.594;8.734;2023-05-18T01:54:49;7.40;99.90
34574;DHT22;20809;49.594;8.734;2023-05-18T01:58:03;7.50;99.90
34574;DHT22;20809;49.594;8.734;2023-05-18T02:01:10;7.30;99.90
34574;DHT22;20809;49.594;8.734;2023-05-18T02:04:19;7.20;99.90
34574;DHT22;20809;49.594;8.734;2023-05-18T02:07:26;7.00;99.90
34574;DHT22;20809;49.594;8.734;2023-05-18T02:10:32;7.00;99.90
34574;DHT22;20809;49.594;8.734;2023-05-18T02:13:39;7.00;99.90
34574;DHT22;20809;49.594;8.734;2023-05-18T02:16:47;6.90;99.90
34574;DHT22;20809;49.594;8.734;2023-05-18T02:20:03;6.80;99.90
34574;DHT22;20809;49.594;8.734;2023-05-18T02:23:15;6.90;99.90
34574;DHT22;20809;49.594;8.734;2023-05-18T02:26:20;6.90;99.90
34574;DHT22;20809;49.594;8.734;2023-05-18T02:29:26;6.80;99.90
34574;DHT22;20809;49.594;8.734;2023-05-18T02:32:31;6.80;99.90
34574;DHT22;20809;49.594;8.734;2023-05-18T02:35:40;6.80;99.90
34574;DHT22;20809;49.594;8.734;2023-05-18T02:38:48;6.70;99.90
34574;DHT22;20809;49.594;8.734;2023-05-18T02:41:59;6.60;99.90
34574;DHT22;20809;49.594;8.734;2023-05-18T02:45:06;6.60;99.90
34574;DHT22;20809;49.594;8.734;2023-05-18T02:48:15;6.80;99.90
34574;DHT22;20809;49.594;8.734;2023-05-18T02:51:24;6.80;99.90
34574;DHT22;20809;49.594;8.734;2023-05-18T02:54:31;6.70;99.90
34574;DHT22;20809;49.594;8.734;2023-05-18T02:57:35;6.60;99.90
34574;DHT22;20809;49.594;8.734;2023-05-18T03:00:40;6.50;99.90
34574;DHT22;20809;49.594;8.734;2023-05-18T03:03:48;6.50;99.90
34574;DHT22;20809;49.594;8.734;2023-05-18T03:07:03;6.40;99.90
34574;DHT22;20809;49.594;8.734;2023-05-18T03:10:10;6.40;99.90
34574;DHT22;20809;49.594;8.734;2023-05-18T03:13:18;6.40;99.90
34574;DHT22;20809;49.594;8.734;2023-05-18T03:16:25;6.40;99.90
34574;DHT22;20809;49.594;8.734;2023-05-18T03:19:38;6.20;99.90
34574;DHT22;20809;49.594;8.734;2023-05-18T03:22:50;6.30;99.90
34574;DHT22;20809;49.594;8.734;2023-05-18T03:26:01;6.20;99.90
34574;DHT22;20809;49.594;8.734;2023-05-18T03:32:56;6.20;99.90
34574;DHT22;20809;49.594;8.734;2023-05-18T03:36:07;6.20;99.90
34574;DHT22;20809;49.594;8.734;2023-05-18T03:39:17;6.30;99.90
34574;DHT22;20809;49.594;8.734;2023-05-18T03:42:23;6.20;99.90
34574;DHT22;20809;49.594;8.734;2023-05-18T03:45:30;6.10;99.90
34574;DHT22;20809;49.594;8.734;2023-05-18T03:48:37;6.00;99.90
34574;DHT22;20809;49.594;8.734;2023-05-18T03:51:47;5.90;99.90
34574;DHT22;20809;49.594;8.734;2023-05-18T03:55:02;6.00;99.90
34574;DHT22;20809;49.594;8.734;2023-05-18T03:58:10;6.10;99.90
34574;DHT22;20809;49.594;8.734;2023-05-18T04:01:21;6.10;99.90
34574;DHT22;20809;49.594;8.734;2023-05-18T04:04:29;6.10;99.90
34574;DHT22;20809;49.594;8.734;2023-05-18T04:07:38;6.10;99.90
34574;DHT22;20809;49.594;8.734;2023-05-18T04:10:53;6.10;99.90
34574;DHT22;20809;49.594;8.734;2023-05-18T04:14:04;6.20;99.90
34574;DHT22;20809;49.594;8.734;2023-05-18T04:17:23;6.10;99.90
34574;DHT22;20809;49.594;8.734;2023-05-18T04:20:30;6.20;99.90
34574;DHT22;20809;49.594;8.734;2023-05-18T04:23:37;6.30;99.90
34574;DHT22;20809;49.594;8.734;2023-05-18T04:26:45;6.50;99.90
34574;DHT22;20809;49.594;8.734;2023-05-18T04:29:55;6.60;99.90
34574;DHT22;20809;49.594;8.734;2023-05-18T04:33:06;6.60;99.90
34574;DHT22;20809;49.594;8.734;2023-05-18T04:36:18;6.80;99.90
34574;DHT22;20809;49.594;8.734;2023-05-18T04:39:34;7.00;99.90
34574;DHT22;20809;49.594;8.734;2023-05-18T04:42:47;7.20;99.90
34574;DHT22;20809;49.594;8.734;2023-05-18T04:45:57;7.40;99.90
34574;DHT22;20809;49.594;8.734;2023-05-18T04:49:07;7.70;99.90
34574;DHT22;20809;49.594;8.734;2023-05-18T04:52:17;8.00;99.90
34574;DHT22;20809;49.594;8.734;2023-05-18T04:55:24;8.20;99.90
34574;DHT22;20809;49.594;8.734;2023-05-18T04:58:26;8.50;99.90
34574;DHT22;20809;49.594;8.734;2023-05-18T05:01:30;8.90;99.90
34574;DHT22;20809;49.594;8.734;2023-05-18T05:04:30;9.10;99.90
34574;DHT22;20809;49.594;8.734;2023-05-18T05:07:34;9.20;99.90
34574;DHT22;20809;49.594;8.734;2023-05-18T05:10:37;9.20;99.90
34574;DHT22;20809;49.594;8.734;2023-05-18T05:13:38;9.10;99.90
34574;DHT22;20809;49.594;8.734;2023-05-18T05:16:39;8.90;99.90
34574;DHT22;20809;49.594;8.734;2023-05-18T05:19:40;9.00;99.90
34574;DHT22;20809;49.594;8.734;2023-05-18T05:22:41;9.10;99.90
34574;DHT22;20809;49.594;8.734;2023-05-18T05:25:45;9.30;99.90
34574;DHT22;20809;49.594;8.734;2023-05-18T05:28:46;9.50;99.90
34574;DHT22;20809;49.594;8.734;2023-05-18T05:31:47;9.80;99.90
34574;DHT22;20809;49.594;8.734;2023-05-18T05:34:48;10.10;99.90
34574;DHT22;20809;49.594;8.734;2023-05-18T05:37:49;10.80;99.90
34574;DHT22;20809;49.594;8.734;2023-05-18T05:40:50;11.20;99.90
34574;DHT22;20809;49.594;8.734;2023-05-18T05:43:51;11.70;99.90
34574;DHT22;20809;49.594;8.734;2023-05-18T05:46:51;11.70;99.90
34574;DHT22;20809;49.594;8.734;2023-05-18T05:49:53;11.90;99.90
34574;DHT22;20809;49.594;8.734;2023-05-18T05:53:25;11.90;99.90
34574;DHT22;20809;49.594;8.734;2023-05-18T05:56:44;11.80;99.90
34574;DHT22;20809;49.594;8.734;2023-05-18T05:59:45;11.50;99.90
34574;DHT22;20809;49.594;8.734;2023-05-18T06:02:47;11.50;99.90
34574;DHT22;20809;49.594;8.734;2023-05-18T06:05:48;11.50;99.90
34574;DHT22;20809;49.594;8.734;2023-05-18T06:08:49;11.40;99.90
34574;DHT22;20809;49.594;8.734;2023-05-18T06:11:50;11.50;99.90
34574;DHT22;20809;49.594;8.734;2023-05-18T06:14:53;11.50;99.90
34574;DHT22;20809;49.594;8.734;2023-05-18T06:17:57;11.70;99.90
34574;DHT22;20809;49.594;8.734;2023-05-18T06:20:58;12.10;99.90
34574;DHT22;20809;49.594;8.734;2023-05-18T06:23:59;12.40;99.90
34574;DHT22;20809;49.594;8.734;2023-05-18T06:27:01;12.90;99.90
34574;DHT22;20809;49.594;8.734;2023-05-18T06:30:02;13.10;99.90
34574;DHT22;20809;49.594;8.734;2023-05-18T06:33:06;13.40;99.90
34574;DHT22;20809;49.594;8.734;2023-05-18T06:36:09;13.60;99.90
34574;DHT22;20809;49.594;8.734;2023-05-18T06:39:13;13.60;99.90
34574;DHT22;20809;49.594;8.734;2023-05-18T06:42:16;13.80;99.90
34574;DHT22;20809;49.594;8.734;2023-05-18T06:45:19;14.20;99.90
34574;DHT22;20809;49.594;8.734;2023-05-18T06:48:26;14.20;99.90
34574;DHT22;20809;49.594;8.734;2023-05-18T06:51:31;14.80;99.90
34574;DHT22;20809;49.594;8.734;2023-05-18T06:54:37;15.10;99.90
34574;DHT22;20809;49.594;8.734;2023-05-18T06:57:42;15.20;99.90
34574;DHT22;20809;49.594;8.734;2023-05-18T07:00:44;15.70;99.90
34574;DHT22;20809;49.594;8.734;2023-05-18T07:03:48;15.80;99.90
34574;DHT22;20809;49.594;8.734;2023-05-18T07:06:51;15.40;99.90
34574;DHT22;20809;49.594;8.734;2023-05-18T07:09:55;14.90;99.90
34574;DHT22;20809;49.594;8.734;2023-05-18T07:12:57;14.60;99.90
34574;DHT22;20809;49.594;8.734;2023-05-18T07:15:58;14.70;99.90
34574;DHT22;20809;49.594;8.734;2023-05-18T07:18:59;14.80;99.90
34574;DHT22;20809;49.594;8.734;2023-05-18T07:22:01;14.50;99.90
34574;DHT22;20809;49.594;8.734;2023-05-18T07:25:05;14.40;99.90
34574;DHT22;20809;49.594;8.734;2023-05-18T07:28:06;14.00;99.90
34574;DHT22;20809;49.594;8.734;2023-05-18T07:31:09;14.00;99.90
34574;DHT22;20809;49.594;8.734;2023-05-18T07:34:11;13.80;99.90
34574;DHT22;20809;49.594;8.734;2023-05-18T07:37:13;13.80;99.90
34574;DHT22;20809;49.594;8.734;2023-05-18T07:40:21;13.80;99.90
34574;DHT22;20809;49.594;8.734;2023-05-18T07:43:29;13.70;99.90
34574;DHT22;20809;49.594;8.734;2023-05-18T07:46:36;13.90;99.90
34574;DHT22;20809;49.594;8.734;2023-05-18T07:49:40;13.90;99.90
34574;DHT22;20809;49.594;8.734;2023-05-18T07:52:44;14.00;99.90
34574;DHT22;20809;49.594;8.734;2023-05-18T07:55:46;14.30;99.90
34574;DHT22;20809;49.594;8.734;2023-05-18T07:58:51;14.50;99.90
34574;DHT22;20809;49.594;8.734;2023-05-18T08:01:53;14.70;99.90
34574;DHT22;20809;49.594;8.734;2023-05-18T08:04:57;14.90;99.90
34574;DHT22;20809;49.594;8.734;2023-05-18T08:07:59;14.80;99.90
34574;DHT22;20809;49.594;8.734;2023-05-18T08:11:04;15.00;99.90
34574;DHT22;20809;49.594;8.734;2023-05-18T08:14:08;14.90;99.90
34574;DHT22;20809;49.594;8.734;2023-05-18T08:17:13;14.70;99.90
34574;DHT22;20809;49.594;8.734;2023-05-18T08:20:18;14.60;99.90
34574;DHT22;20809;49.594;8.734;2023-05-18T08:23:25;14.80;99.90
34574;DHT22;20809;49.594;8.734;2023-05-18T08:26:30;15.40;99.90
34574;DHT22;20809;49.594;8.734;2023-05-18T08:29:35;15.90;99.90
34574;DHT22;20809;49.594;8.734;2023-05-18T08:32:37;16.00;99.90
34574;DHT22;20809;49.594;8.734;2023-05-18T08:35:40;16.30;99.90
34574;DHT22;20809;49.594;8.734;2023-05-18T08:38:42;16.60;99.30
34574;DHT22;20809;49.594;8.734;2023-05-18T08:41:54;17.50;97.40
34574;DHT22;20809;49.594;8.734;2023-05-18T08:48:32;17.90;95.70
34574;DHT22;20809;49.594;8.734;2023-05-18T08:51:39;18.20;93.80
34574;DHT22;20809;49.594;8.734;2023-05-18T08:54:43;18.70;92.50
34574;DHT22;20809;49.594;8.734;2023-05-18T08:57:51;19.10;91.40
34574;DHT22;20809;49.594;8.734;2023-05-18T09:00:58;19.30;90.20
34574;DHT22;20809;49.594;8.734;2023-05-18T09:04:01;19.40;89.10
34574;DHT22;20809;49.594;8.734;2023-05-18T09:07:06;19.50;88.90
34574;DHT22;20809;49.594;8.734;2023-05-18T09:10:12;19.80;88.60
34574;DHT22;20809;49.594;8.734;2023-05-18T09:13:21;20.00;87.00
34574;DHT22;20809;49.594;8.734;2023-05-18T09:16:30;19.30;86.90
34574;DHT22;20809;49.594;8.734;2023-05-18T09:19:35;19.60;85.40
34574;DHT22;20809;49.594;8.734;2023-05-18T09:22:38;20.00;83.10
34574;DHT22;20809;49.594;8.734;2023-05-18T09:25:45;20.40;80.60
34574;DHT22;20809;49.594;8.734;2023-05-18T09:28:53;19.90;81.20
34574;DHT22;20809;49.594;8.734;2023-05-18T09:31:56;19.10;80.80
34574;DHT22;20809;49.594;8.734;2023-05-18T09:35:07;18.50;81.70
34574;DHT22;20809;49.594;8.734;2023-05-18T09:38:14;17.80;85.60
34574;DHT22;20809;49.594;8.734;2023-05-18T09:41:24;17.40;84.10
34574;DHT22;20809;49.594;8.734;2023-05-18T09:44:35;17.00;86.50
34574;DHT22;20809;49.594;8.734;2023-05-18T09:47:36;16.80;85.70
34574;DHT22;20809;49.594;8.734;2023-05-18T09:50:38;16.80;85.10
34574;DHT22;20809;49.594;8.734;2023-05-18T09:53:39;16.70;87.20
34574;DHT22;20809;49.594;8.734;2023-05-18T09:56:44;16.40;87.30
34574;DHT22;20809;49.594;8.734;2023-05-18T10:00:01;16.20;85.60
34574;DHT22;20809;49.594;8.734;2023-05-18T10:03:04;16.20;88.60
34574;DHT22;20809;49.594;8.734;2023-05-18T10:06:17;16.10;89.50
34574;DHT22;20809;49.594;8.734;2023-05-18T10:09:20;16.20;90.10
34574;DHT22;20809;49.594;8.734;2023-05-18T10:12:23;16.50;88.70
34574;DHT22;20809;49.594;8.734;2023-05-18T10:15:28;16.50;87.10
34574;DHT22;20809;49.594;8.734;2023-05-18T10:18:36;16.40;90.10
34574;DHT22;20809;49.594;8.734;2023-05-18T10:21:42;16.20;89.90
34574;DHT22;20809;49.594;8.734;2023-05-18T10:24:52;16.00;90.10
34574;DHT22;20809;49.594;8.734;2023-05-18T10:28:01;15.90;87.60
34574;DHT22;20809;49.594;8.734;2023-05-18T10:31:08;16.30;88.90
34574;DHT22;20809;49.594;8.734;2023-05-18T10:34:14;16.60;88.20
34574;DHT22;20809;49.594;8.734;2023-05-18T10:37:21;16.70;86.90
34574;DHT22;20809;49.594;8.734;2023-05-18T10:40:26;16.80;86.90
34574;DHT22;20809;49.594;8.734;2023-05-18T10:43:29;17.10;85.90
34574;DHT22;20809;49.594;8.734;2023-05-18T10:46:34;17.20;85.90
34574;DHT22;20809;49.594;8.734;2023-05-18T10:49:41;17.40;86.70
34574;DHT22;20809;49.594;8.734;2023-05-18T10:52:44;17.30;83.90
34574;DHT22;20809;49.594;8.734;2023-05-18T10:55:48;17.40;84.50
34574;DHT22;20809;49.594;8.734;2023-05-18T10:58:49;17.10;85.10
34574;DHT22;20809;49.594;8.734;2023-05-18T11:01:53;17.20;84.90
34574;DHT22;20809;49.594;8.734;2023-05-18T11:04:57;17.30;86.60
34574;DHT22;20809;49.594;8.734;2023-05-18T11:08:02;17.40;85.00
34574;DHT22;20809;49.594;8.734;2023-05-18T11:11:09;17.30;86.30
34574;DHT22;20809;49.594;8.734;2023-05-18T11:14:13;17.60;87.60
34574;DHT22;20809;49.594;8.734;2023-05-18T11:17:22;18.30;85.50
34574;DHT22;20809;49.594;8.734;2023-05-18T11:20:25;18.30;84.00
34574;DHT22;20809;49.594;8.734;2023-05-18T11:23:31;17.90;82.40
34574;DHT22;20809;49.594;8.734;2023-05-18T11:26:41;17.80;84.50
34574;DHT22;20809;49.594;8.734;2023-05-18T11:29:43;18.20;83.80
34574;DHT22;20809;49.594;8.734;2023-05-18T11:32:49;18.60;82.70
34574;DHT22;20809;49.594;8.734;2023-05-18T11:36:09;18.30;82.90
34574;DHT22;20809;49.594;8.734;2023-05-18T11:39:22;18.00;84.10
34574;DHT22;20809;49.594;8.734;2023-05-18T11:42:23;17.90;84.00
34574;DHT22;20809;49.594;8.734;2023-05-18T11:45:32;18.00;81.20
34574;DHT22;20809;49.594;8.734;2023-05-18T12:01:13;18.00;84.80
34574;DHT22;20809;49.594;8.734;2023-05-18T12:04:14;18.80;81.90
34574;DHT22;20809;49.594;8.734;2023-05-18T12:07:17;19.10;81.20
34574;DHT22;20809;49.594;8.734;2023-05-18T12:13:37;20.90;77.20
34574;DHT22;20809;49.594;8.734;2023-05-18T12:19:43;18.50;78.60
34574;DHT22;20809;49.594;8.734;2023-05-18T12:26:58;18.20;80.70
34574;DHT22;20809;49.594;8.734;2023-05-18T12:30:04;17.90;79.00
34574;DHT22;20809;49.594;8.734;2023-05-18T12:33:05;18.10;80.80
34574;DHT22;20809;49.594;8.734;2023-05-18T12:36:09;18.50;78.10
34574;DHT22;20809;49.594;8.734;2023-05-18T12:39:13;18.60;78.60
34574;DHT22;20809;49.594;8.734;2023-05-18T12:42:14;18.70;79.20
34574;DHT22;20809;49.594;8.734;2023-05-18T12:45:15;18.90;78.60
34574;DHT22;20809;49.594;8.734;2023-05-18T12:48:15;19.10;75.60
34574;DHT22;20809;49.594;8.734;2023-05-18T12:51:17;18.90;76.80
34574;DHT22;20809;49.594;8.734;2023-05-18T12:54:27;19.20;77.50
34574;DHT22;20809;49.594;8.734;2023-05-18T12:57:29;19.30;77.00
34574;DHT22;20809;49.594;8.734;2023-05-18T13:00:36;19.00;76.60
34574;DHT22;20809;49.594;8.734;2023-05-18T13:03:40;19.00;75.70
34574;DHT22;20809;49.594;8.734;2023-05-18T13:06:41;19.10;76.20
34574;DHT22;20809;49.594;8.734;2023-05-18T13:09:45;18.80;77.90
34574;DHT22;20809;49.594;8.734;2023-05-18T13:12:48;18.60;76.80
34574;DHT22;20809;49.594;8.734;2023-05-18T13:15:50;18.90;77.80
34574;DHT22;20809;49.594;8.734;2023-05-18T13:19:02;18.90;78.30
34574;DHT22;20809;49.594;8.734;2023-05-18T13:22:03;18.80;79.80
34574;DHT22;20809;49.594;8.734;2023-05-18T13:25:04;19.00;77.30
34574;DHT22;20809;49.594;8.734;2023-05-18T13:28:05;19.00;76.40
34574;DHT22;20809;49.594;8.734;2023-05-18T13:31:06;19.00;75.40
34574;DHT22;20809;49.594;8.734;2023-05-18T13:34:07;19.60;80.00
34574;DHT22;20809;49.594;8.734;2023-05-18T13:37:10;20.40;73.70
34574;DHT22;20809;49.594;8.734;2023-05-18T13:43:24;19.80;72.90
34574;DHT22;20809;49.594;8.734;2023-05-18T13:46:25;19.20;74.40
34574;DHT22;20809;49.594;8.734;2023-05-18T13:49:25;19.30;76.90
34574;DHT22;20809;49.594;8.734;2023-05-18T13:52:26;19.50;74.50
34574;DHT22;20809;49.594;8.734;2023-05-18T13:55:26;19.60;74.80
34574;DHT22;20809;49.594;8.734;2023-05-18T13:58:27;19.60;76.80
34574;DHT22;20809;49.594;8.734;2023-05-18T14:05:25;19.50;73.20
34574;DHT22;20809;49.594;8.734;2023-05-18T14:08:26;19.40;72.60
34574;DHT22;20809;49.594;8.734;2023-05-18T14:11:26;19.70;73.30
34574;DHT22;20809;49.594;8.734;2023-05-18T14:14:27;20.10;74.10
34574;DHT22;20809;49.594;8.734;2023-05-18T14:17:28;20.30;73.40
34574;DHT22;20809;49.594;8.734;2023-05-18T14:20:34;20.20;72.90
34574;DHT22;20809;49.594;8.734;2023-05-18T14:23:37;20.10;71.60
34574;DHT22;20809;49.594;8.734;2023-05-18T14:26:37;19.60;71.60
34574;DHT22;20809;49.594;8.734;2023-05-18T14:29:38;19.10;74.00
34574;DHT22;20809;49.594;8.734;2023-05-18T14:32:39;19.20;73.80
34574;DHT22;20809;49.594;8.734;2023-05-18T14:35:40;19.00;72.50
34574;DHT22;20809;49.594;8.734;2023-05-18T14:38:44;18.90;73.90
34574;DHT22;20809;49.594;8.734;2023-05-18T14:41:45;19.10;73.00
34574;DHT22;20809;49.594;8.734;2023-05-18T14:44:46;19.30;71.90
34574;DHT22;20809;49.594;8.734;2023-05-18T14:47:46;18.90;73.40
34574;DHT22;20809;49.594;8.734;2023-05-18T14:50:47;18.70;72.30
34574;DHT22;20809;49.594;8.734;2023-05-18T14:53:48;18.70;72.90
34574;DHT22;20809;49.594;8.734;2023-05-18T14:56:48;19.20;73.20
34574;DHT22;20809;49.594;8.734;2023-05-18T15:06:10;19.70;69.70
34574;DHT22;20809;49.594;8.734;2023-05-18T15:09:11;19.30;70.20
34574;DHT22;20809;49.594;8.734;2023-05-18T15:16:15;18.60;72.50
34574;DHT22;20809;49.594;8.734;2023-05-18T15:19:18;18.70;73.10
34574;DHT22;20809;49.594;8.734;2023-05-18T15:22:19;19.00;72.50
34574;DHT22;20809;49.594;8.734;2023-05-18T15:25:20;19.10;71.50
34574;DHT22;20809;49.594;8.734;2023-05-18T15:28:21;19.20;67.90
34574;DHT22;20809;49.594;8.734;2023-05-18T15:31:21;19.30;71.00
34574;DHT22;20809;49.594;8.734;2023-05-18T15:34:22;19.30;71.80
34574;DHT22;20809;49.594;8.734;2023-05-18T15:37:22;19.50;72.20
34574;DHT22;20809;49.594;8.734;2023-05-18T15:40:23;19.90;70.90
34574;DHT22;20809;49.594;8.734;2023-05-18T15:43:23;20.20;71.70
34574;DHT22;20809;49.594;8.734;2023-05-18T15:46:28;19.90;71.50
34574;DHT22;20809;49.594;8.734;2023-05-18T15:49:30;19.90;68.80
34574;DHT22;20809;49.594;8.734;2023-05-18T15:52:31;19.20;70.00
34574;DHT22;20809;49.594;8.734;2023-05-18T15:55:31;18.70;72.30
34574;DHT22;20809;49.594;8.734;2023-05-18T15:58:32;18.20;73.70
34574;DHT22;20809;49.594;8.734;2023-05-18T16:01:34;18.20;73.60
34574;DHT22;20809;49.594;8.734;2023-05-18T16:04:34;18.60;73.90
34574;DHT22;20809;49.594;8.734;2023-05-18T16:10:43;18.90;72.80
34574;DHT22;20809;49.594;8.734;2023-05-18T16:13:44;18.90;71.60
34574;DHT22;20809;49.594;8.734;2023-05-18T16:16:44;18.70;71.70
34574;DHT22;20809;49.594;8.734;2023-05-18T16:19:45;18.40;71.60
34574;DHT22;20809;49.594;8.734;2023-05-18T16:22:46;18.10;73.00
34574;DHT22;20809;49.594;8.734;2023-05-18T16:25:46;18.10;73.60
34574;DHT22;20809;49.594;8.734;2023-05-18T16:28:47;18.20;71.70
34574;DHT22;20809;49.594;8.734;2023-05-18T16:31:47;18.50;74.10
34574;DHT22;20809;49.594;8.734;2023-05-18T16:34:48;18.90;71.00
34574;DHT22;20809;49.594;8.734;2023-05-18T16:37:48;19.10;71.30
34574;DHT22;20809;49.594;8.734;2023-05-18T16:40:49;19.00;71.70
34574;DHT22;20809;49.594;8.734;2023-05-18T16:43:50;18.90;72.60
34574;DHT22;20809;49.594;8.734;2023-05-18T16:46:50;18.90;72.40
34574;DHT22;20809;49.594;8.734;2023-05-18T16:49:51;18.80;72.70
34574;DHT22;20809;49.594;8.734;2023-05-18T16:52:51;18.60;73.50
34574;DHT22;20809;49.594;8.734;2023-05-18T16:55:52;18.80;73.10
34574;DHT22;20809;49.594;8.734;2023-05-18T16:58:52;19.10;72.40
34574;DHT22;20809;49.594;8.734;2023-05-18T17:01:53;19.60;71.40
34574;DHT22;20809;49.594;8.734;2023-05-18T17:04:53;20.10;70.70
34574;DHT22;20809;49.594;8.734;2023-05-18T17:07:54;20.00;68.50
34574;DHT22;20809;49.594;8.734;2023-05-18T17:10:55;20.20;70.70
34574;DHT22;20809;49.594;8.734;2023-05-18T17:13:56;20.40;69.70
34574;DHT22;20809;49.594;8.734;2023-05-18T17:16:59;20.40;68.30
34574;DHT22;20809;49.594;8.734;2023-05-18T17:19:59;20.30;67.90
34574;DHT22;20809;49.594;8.734;2023-05-18T17:23:00;20.90;68.70
34574;DHT22;20809;49.594;8.734;2023-05-18T17:26:01;21.40;67.50
34574;DHT22;20809;49.594;8.734;2023-05-18T17:29:02;21.70;67.70
34574;DHT22;20809;49.594;8.734;2023-05-18T17:32:02;21.80;67.50
34574;DHT22;20809;49.594;8.734;2023-05-18T17:35:05;21.20;67.40
34574;DHT22;20809;49.594;8.734;2023-05-18T17:38:07;19.70;68.60
34574;DHT22;20809;49.594;8.734;2023-05-18T17:41:07;18.60;71.50
34574;DHT22;20809;49.594;8.734;2023-05-18T17:44:08;18.10;72.60
34574;DHT22;20809;49.594;8.734;2023-05-18T17:47:13;17.90;74.00
34574;DHT22;20809;49.594;8.734;2023-05-18T17:50:13;17.50;74.40
34574;DHT22;20809;49.594;8.734;2023-05-18T17:53:14;17.20;75.30
34574;DHT22;20809;49.594;8.734;2023-05-18T17:56:16;16.90;75.90
34574;DHT22;20809;49.594;8.734;2023-05-18T17:59:17;16.80;76.20
34574;DHT22;20809;49.594;8.734;2023-05-18T18:02:17;16.70;76.90
34574;DHT22;20809;49.594;8.734;2023-05-18T18:05:18;16.70;77.00
34574;DHT22;20809;49.594;8.734;2023-05-18T18:08:18;16.60;77.50
34574;DHT22;20809;49.594;8.734;2023-05-18T18:11:20;16.50;77.80
34574;DHT22;20809;49.594;8.734;2023-05-18T18:14:20;16.40;78.40
34574;DHT22;20809;49.594;8.734;2023-05-18T18:17:21;16.20;79.00
34574;DHT22;20809;49.594;8.734;2023-05-18T18:20:23;16.10;78.90
34574;DHT22;20809;49.594;8.734;2023-05-18T18:23:23;16.10;78.90
34574;DHT22;20809;49.594;8.734;2023-05-18T18:26:24;16.10;79.50
34574;DHT22;20809;49.594;8.734;2023-05-18T18:29:25;16.00;80.70
34574;DHT22;20809;49.594;8.734;2023-05-18T18:32:29;15.90;80.80
34574;DHT22;20809;49.594;8.734;2023-05-18T18:35:29;15.90;83.00
34574;DHT22;20809;49.594;8.734;2023-05-18T18:38:30;15.80;82.90
34574;DHT22;20809;49.594;8.734;2023-05-18T18:41:33;15.60;83.40
34574;DHT22;20809;49.594;8.734;2023-05-18T18:44:33;15.50;86.10
34574;DHT22;20809;49.594;8.734;2023-05-18T18:47:34;15.40;84.30
34574;DHT22;20809;49.594;8.734;2023-05-18T18:50:34;15.30;88.40
34574;DHT22;20809;49.594;8.734;2023-05-18T18:53:35;15.20;85.90
34574;DHT22;20809;49.594;8.734;2023-05-18T18:56:35;15.00;88.20
34574;DHT22;20809;49.594;8.734;2023-05-18T18:59:37;14.90;86.80
34574;DHT22;20809;49.594;8.734;2023-05-18T19:02:38;14.80;87.90
34574;DHT22;20809;49.594;8.734;2023-05-18T19:05:38;14.70;90.00
34574;DHT22;20809;49.594;8.734;2023-05-18T19:08:39;14.50;91.30
34574;DHT22;20809;49.594;8.734;2023-05-18T19:11:40;14.40;92.30
34574;DHT22;20809;49.594;8.734;2023-05-18T19:14:41;14.10;93.90
34574;DHT22;20809;49.594;8.734;2023-05-18T19:17:42;13.90;94.40
34574;DHT22;20809;49.594;8.734;2023-05-18T19:20:45;13.80;94.70
34574;DHT22;20809;49.594;8.734;2023-05-18T19:23:45;13.70;95.40
34574;DHT22;20809;49.594;8.734;2023-05-18T19:26:46;13.50;96.70
34574;DHT22;20809;49.594;8.734;2023-05-18T19:29:46;13.40;98.40
34574;DHT22;20809;49.594;8.734;2023-05-18T19:32:50;13.30;99.90
34574;DHT22;20809;49.594;8.734;2023-05-18T19:35:51;13.10;99.90
34574;DHT22;20809;49.594;8.734;2023-05-18T19:38:53;12.90;99.90
34574;DHT22;20809;49.594;8.734;2023-05-18T19:41:54;12.70;99.90
34574;DHT22;20809;49.594;8.734;2023-05-18T19:44:55;12.60;99.90
34574;DHT22;20809;49.594;8.734;2023-05-18T19:47:56;12.50;99.90
34574;DHT22;20809;49.594;8.734;2023-05-18T19:50:57;12.40;99.90
34574;DHT22;20809;49.594;8.734;2023-05-18T19:53:57;12.30;99.90
34574;DHT22;20809;49.594;8.734;2023-05-18T19:56:58;12.30;99.90
34574;DHT22;20809;49.594;8.734;2023-05-18T19:59:58;12.10;99.90
34574;DHT22;20809;49.594;8.734;2023-05-18T20:03:00;12.00;99.90
34574;DHT22;20809;49.594;8.734;2023-05-18T20:06:03;12.00;99.90
34574;DHT22;20809;49.594;8.734;2023-05-18T20:09:04;11.90;99.90
34574;DHT22;20809;49.594;8.734;2023-05-18T20:12:04;11.80;99.90
34574;DHT22;20809;49.594;8.734;2023-05-18T20:15:05;11.60;99.90
34574;DHT22;20809;49.594;8.734;2023-05-18T20:18:06;11.60;99.90
34574;DHT22;20809;49.594;8.734;2023-05-18T20:21:07;11.40;99.90
34574;DHT22;20809;49.594;8.734;2023-05-18T20:24:08;11.40;99.90
34574;DHT22;20809;49.594;8.734;2023-05-18T20:27:13;11.30;99.90